Swansboro, NC (28584)

3:53 PM EST on February 28, 2015 (GMT -0500)
Marsh Harbor | Change Station
CLOSE
Current Station
Personal Weather Station
Location: Cedar Point, NC
Elevation: 12 ft
Nearby Weather Stations

Elev 12 ft 34.69 °N, 77.08 °W | Updated 17 seconds ago

Partly Cloudy
Partly Cloudy
44.1 °F
Feels Like 42 °F
N
4.0
Wind Variable Wind from NE
Gusts 5.0 mph

Today
High -- | Low -- °F
--% Chance of Precip.
Yesterday
High -- | Low -- °F
Precip. -- in
6:39 AM 6:03 PM
Waxing Gibbous, 80% visible
Pressure 30.68 in
Visibility 10.0 miles
Clouds Scattered Clouds 6000 ft
Windchill 42 °F
Dew Point 26 °F
Humidity 48%
Rainfall 0.00 in
Snow Depth Not available.
UV 3 out of 12
Pollen 6.60 out of 12
Air Quality Not available.
Flu Activity Not available.
METAR KNJM 281957Z AUTO 04012G18KT 10SM SCT060 08/M06 A3066 RMK AO2 SLP387 T00831061 $

More Conditions Fewer Conditions

Pressure 30.68 in
Visibility 10.0 miles
Clouds Scattered Clouds 6000 ft
Windchill 42 °F
Dew Point 26 °F
Humidity 48%
Rainfall 0.00 in
Snow Depth Not available.
UV 3 out of 12
Pollen 6.60 out of 12
Air Quality Not available.
Flu Activity Not available.
METAR KNJM 281957Z AUTO 04012G18KT 10SM SCT060 08/M06 A3066 RMK AO2 SLP387 T00831061 $

More Conditions Fewer Conditions

10-Day Weather Forecast

Almanac

Astronomy

Feb. 28, 2015 Rise Set
Actual Time
Civil Twilight
Nautical Twilight
Astronomical Twilight
Moon
Length of Visible Light
Length of Day
Tomorrow will be .
, % of the Moon is Illuminated

Today's Extremes

State Highs State Lows

Community

WunderPhotos

Upload Photos

1,801,145 photos uploaded!

WunderBlogs® & News

Nearby

Air Quality

  Air Quality AQ Index Pollutant
Not available.

Snow Depth

Station Depth Elevation

Earthquake Activity

City Distance Mag. Time & Date
Minimum magnitude displayed is 2.5.

Coastal Water Temperatures

Place Temperature

Nearby Weather Stations